Airfield :
LOGIN :

Register | Disclaimer

   EN    FR    IT 

 










Legend :    VFR   Marginal VFR   IFR   Intensive IFR   Very Intensive IFR
Visi :
Ceiling :
>= 8 km
>= 3000ft
5 to 8 km
1000 to 3000 ft
1500m to 5 km
500 to 1000 ft
800 to 1500m
200 to 500 ft
< 800m
< 200 ft
Symbols :   Thunderstorms  Fog  Heavy snow  Heavy precipitations  Wind > 20 kt
SIGMETs :     Misc.  Thunderstorms  Icing  Turbulence  Mountain Waves  Volcanic Ashes






- Airport Elevation : 399 ft
- IATA code : KIV


LUKK - Chisinau Int.

CURRENT METAR :
  • 281630Z 09006KT 5000 BR FEW002 M01/M01 Q1008 R08/120095 TEMPO 0500 FG

EXPIRED METARs :
  • 281600Z 10006KT 5000 BR NSC M01/M01 Q1009 R08/120095 BECMG 3000 BR
  • 281530Z 10006KT 6000 NSC M00/M01 Q1009 R08/120095 BECMG 3000 BR
  • 281500Z 11005KT 7000 NSC 01/M01 Q1009 R08/120095 BECMG 3000 BR
  • 281430Z 11004KT 9000 NSC 02/00 Q1009 R08/120095 NOSIG
  • 281400Z 15003KT 120V180 9000 NSC 03/01 Q1009 R26/250152 NOSIG

TAF AMD TAF LUKK
Valid from the 28 at 12:00 until the 29 at 12:00 UTC


281234Z 2812/2912 VRB04KT 8000 SCT010
BECMG 2814/2816 3000 BR
TEMPO 2816/2819 0300 FG VV///
TEMPO 2819/2906 0800 FG OVC002
FM290800 28012KT 9999 BKN030



MET'MAP, your aeronautical weather chart ! - Copyright ORBIFLY December 2007 - Disclaimer

ORBIFLY MET'MAP TEAM :

Programming & Development : Alexandra Zaïnal
Concept & original design : Baudouin d'Aumeries
Assistance for programming : Marc-Olivier Méhu
Technical & hardware support : Manuel Goepfert

Contact : metmap@orbifly.com




SOURCES & CREDITS :

   NOAA